Time;durP1;ratioP1;P1;durP2;ratioP2;P2;SDS_P1;SDS_P2;PMS_P1;PMS_P2;Temp;Humidity;BMP_temperature;BMP_pressure;BME280_temperature;BME280_humidity;BME280_pressure;Samples;Min_cycle;Max_cycle;Signal;HPM_P1;HPM_P2
2022/04/22 00:00:37;;;;;;;10.80;7.45;;;23.10;41.40;;;;;;6159121;28;80344;-68
2022/04/22 00:03:38;;;;;;;13.40;8.18;;;23.10;41.40;;;;;;6160085;28;80355;-68
2022/04/22 00:06:38;;;;;;;12.85;7.65;;;23.10;41.50;;;;;;6159611;28;80705;-66
2022/04/22 00:09:39;;;;;;;13.13;8.70;;;23.10;41.30;;;;;;6159939;28;80273;-67
2022/04/22 00:12:39;;;;;;;13.73;8.57;;;23.10;41.00;;;;;;6159458;28;80635;-67
2022/04/22 00:15:40;;;;;;;14.63;9.05;;;23.10;40.90;;;;;;6159575;28;80594;-67
2022/04/22 00:18:40;;;;;;;13.18;8.88;;;23.10;40.90;;;;;;6159053;28;80477;-67
2022/04/22 00:21:42;;;;;;;13.73;8.40;;;23.20;41.00;;;;;;6158923;28;80138;-67
2022/04/22 00:24:42;;;;;;;12.20;7.35;;;23.10;41.10;;;;;;6157839;28;82005;-67
2022/04/22 00:27:43;;;;;;;10.93;7.35;;;23.10;41.10;;;;;;6159458;28;80378;-68
2022/04/22 00:30:44;;;;;;;13.40;8.57;;;23.20;41.30;;;;;;6159295;28;80192;-67
2022/04/22 00:33:44;;;;;;;13.60;8.10;;;23.10;41.00;;;;;;6159472;28;81864;-67
2022/04/22 00:36:45;;;;;;;12.38;7.35;;;23.10;41.10;;;;;;6159242;28;80326;-68
2022/04/22 00:39:45;;;;;;;13.57;8.55;;;23.10;41.20;;;;;;6159504;28;80040;-67
2022/04/22 00:42:46;;;;;;;14.50;8.25;;;23.10;41.10;;;;;;6158691;28;81400;-67
2022/04/22 00:45:47;;;;;;;11.75;8.05;;;23.10;41.10;;;;;;6156825;28;80558;-67
2022/04/22 00:48:48;;;;;;;12.02;8.18;;;23.10;41.10;;;;;;6134864;28;80346;-67
2022/04/22 00:51:48;;;;;;;14.80;8.13;;;23.10;41.10;;;;;;6134719;28;80336;-66
2022/04/22 00:54:49;;;;;;;10.60;7.60;;;23.10;41.10;;;;;;6134989;28;81361;-67
2022/04/22 00:57:49;;;;;;;12.05;7.80;;;23.10;41.10;;;;;;6151563;28;80529;-67
2022/04/22 01:00:50;;;;;;;13.80;8.20;;;23.10;41.10;;;;;;6160559;28;80792;-67
2022/04/22 01:10:29;;;;;;;12.20;7.65;;;23.10;41.20;;;;;;6139960;28;84610;-67
2022/04/22 01:13:29;;;;;;;11.38;7.68;;;23.20;41.20;;;;;;6142624;28;80563;-68
2022/04/22 01:16:30;;;;;;;12.30;7.82;;;23.10;41.10;;;;;;6142217;28;80788;-68
2022/04/22 01:19:31;;;;;;;11.98;7.60;;;23.10;41.20;;;;;;6142763;28;81766;-68
2022/04/22 01:22:32;;;;;;;12.68;7.90;;;23.10;41.50;;;;;;6148666;28;80852;-69
2022/04/22 01:25:32;;;;;;;12.95;8.13;;;23.10;41.80;;;;;;6162750;28;81548;-68
2022/04/22 01:28:33;;;;;;;12.82;7.13;;;23.10;41.80;;;;;;6162459;28;80020;-68
2022/04/22 01:31:33;;;;;;;10.30;7.05;;;23.10;42.00;;;;;;6162458;28;81078;-69
2022/04/22 01:34:34;;;;;;;10.80;7.50;;;23.10;41.90;;;;;;6162468;28;80484;-68
2022/04/22 01:37:37;;;;;;;11.65;7.00;;;23.10;42.30;;;;;;6152948;28;81549;-68
2022/04/22 01:40:37;;;;;;;10.40;6.18;;;23.10;42.50;;;;;;6136354;28;83108;-68
2022/04/22 01:43:38;;;;;;;12.80;7.05;;;23.10;42.60;;;;;;6153981;28;80331;-68
2022/04/22 01:46:38;;;;;;;10.65;6.88;;;23.10;42.70;;;;;;6162117;28;81545;-68
2022/04/22 01:49:39;;;;;;;12.63;7.32;;;23.10;42.20;;;;;;6161980;28;80423;-68
2022/04/22 01:52:41;;;;;;;8.50;6.45;;;23.10;42.70;;;;;;6161897;28;81406;-67
2022/04/22 01:55:41;;;;;;;12.05;6.90;;;23.10;42.10;;;;;;6161591;28;80475;-68
2022/04/22 01:58:42;;;;;;;12.20;7.38;;;23.10;42.40;;;;;;6157214;28;81111;-69
2022/04/22 02:01:43;;;;;;;10.85;7.38;;;23.00;42.10;;;;;;6161479;28;80697;-69
2022/04/22 02:04:43;;;;;;;10.00;7.10;;;23.00;42.00;;;;;;6139000;28;82854;-68
2022/04/22 02:07:45;;;;;;;11.23;7.28;;;23.00;42.50;;;;;;6137834;28;81178;-68
2022/04/22 02:10:46;;;;;;;10.25;6.68;;;23.00;42.40;;;;;;6137094;28;80533;-68
2022/04/22 02:13:46;;;;;;;9.90;6.72;;;23.00;42.10;;;;;;6147911;28;80459;-68
2022/04/22 02:16:47;;;;;;;11.85;6.90;;;23.00;42.30;;;;;;6161714;28;81979;-68
2022/04/22 02:19:47;;;;;;;9.15;6.72;;;23.00;42.20;;;;;;6142198;28;81127;-68
2022/04/22 02:22:48;;;;;;;14.10;8.15;;;23.00;41.90;;;;;;6140135;28;80329;-68
2022/04/22 02:25:49;;;;;;;14.90;8.57;;;23.00;41.50;;;;;;6149409;28;80416;-69
2022/04/22 02:28:49;;;;;;;16.48;7.90;;;23.00;41.50;;;;;;6147063;28;80944;-68
2022/04/22 02:31:52;;;;;;;12.45;8.15;;;23.00;41.70;;;;;;6161432;28;80720;-68
2022/04/22 02:34:53;;;;;;;16.80;8.68;;;23.10;41.70;;;;;;6143575;28;80365;-68
2022/04/22 02:37:54;;;;;;;14.57;9.18;;;23.10;41.60;;;;;;6137577;28;80659;-68
2022/04/22 02:47:32;;;;;;;14.73;8.40;;;23.00;41.70;;;;;;6161400;28;80452;-68
2022/04/22 02:50:33;;;;;;;11.98;8.13;;;23.00;41.50;;;;;;6161017;28;80731;-68
2022/04/22 02:53:33;;;;;;;12.98;8.85;;;23.00;41.40;;;;;;6160797;28;81807;-68
2022/04/22 02:56:34;;;;;;;12.93;6.75;;;23.00;41.30;;;;;;6161045;28;80400;-68
2022/04/22 02:59:34;;;;;;;9.65;6.65;;;23.10;41.60;;;;;;6160346;28;81096;-69
2022/04/22 03:02:35;;;;;;;10.73;8.07;;;23.10;42.20;;;;;;6160493;28;80602;-68
2022/04/22 03:05:35;;;;;;;11.80;7.82;;;23.00;42.00;;;;;;6142294;28;80808;-67
2022/04/22 03:08:36;;;;;;;12.70;7.82;;;23.10;42.30;;;;;;6136583;28;80402;-67
2022/04/22 03:11:37;;;;;;;13.70;8.40;;;23.00;42.20;;;;;;6158017;28;82308;-66
2022/04/22 03:14:38;;;;;;;13.75;8.73;;;23.10;42.20;;;;;;6151627;28;80468;-67
2022/04/22 03:17:39;;;;;;;12.93;8.80;;;23.10;42.10;;;;;;6136662;28;80356;-68
2022/04/22 03:20:40;;;;;;;13.98;8.45;;;23.00;42.10;;;;;;6136500;28;80578;-68
2022/04/22 03:23:40;;;;;;;13.85;9.15;;;23.00;42.00;;;;;;6135624;28;80338;-67
2022/04/22 03:26:41;;;;;;;12.77;8.63;;;23.00;42.00;;;;;;6152013;28;83469;-68
2022/04/22 03:29:41;;;;;;;15.30;9.52;;;23.00;42.30;;;;;;6153200;28;80593;-68
2022/04/22 03:32:42;;;;;;;17.00;10.15;;;23.10;41.40;;;;;;6136345;28;80563;-65
2022/04/22 03:35:43;;;;;;;14.07;9.60;;;23.10;41.50;;;;;;6146662;28;88184;-65
2022/04/22 03:38:43;;;;;;;15.88;9.93;;;23.10;41.90;;;;;;6159389;28;83989;-64
2022/04/22 03:41:44;;;;;;;16.98;9.98;;;23.10;41.70;;;;;;6159072;28;81788;-67
2022/04/22 03:44:45;;;;;;;16.70;10.35;;;23.10;41.70;;;;;;6157054;28;82812;-66
2022/04/22 03:47:46;;;;;;;15.88;10.02;;;23.00;41.70;;;;;;6157176;28;84840;-67
2022/04/22 03:50:46;;;;;;;18.30;10.75;;;23.00;41.50;;;;;;6144050;28;83001;-66
2022/04/22 03:53:47;;;;;;;19.15;11.95;;;23.00;41.20;;;;;;6137089;28;83944;-68
2022/04/22 04:00:06;;;;;;;20.10;12.15;;;23.00;41.30;;;;;;6151592;28;83022;-68
2022/04/22 04:03:07;;;;;;;28.80;13.32;;;23.00;41.60;;;;;;6156173;28;84636;-71
2022/04/22 04:06:08;;;;;;;20.65;11.77;;;23.00;41.90;;;;;;6152354;28;84165;-68
2022/04/22 04:15:59;;;;;;;20.25;10.77;;;23.10;42.60;;;;;;6140653;28;83231;-65
2022/04/22 04:25:41;;;;;;;20.85;9.90;;;23.10;43.90;;;;;;6151397;28;87700;-72
2022/04/22 04:28:41;;;;;;;20.83;11.10;;;23.10;43.70;;;;;;6159879;28;82848;-70
2022/04/22 04:31:42;;;;;;;19.98;11.35;;;23.10;43.60;;;;;;6156554;28;83078;-68
2022/04/22 04:34:44;;;;;;;20.40;10.55;;;23.10;43.70;;;;;;6158860;28;83054;-66
2022/04/22 04:37:44;;;;;;;19.25;10.70;;;23.20;44.20;;;;;;6142435;28;85896;-68
2022/04/22 04:40:45;;;;;;;19.08;10.75;;;23.10;44.40;;;;;;6157562;28;84242;-65
2022/04/22 04:43:45;;;;;;;20.58;11.60;;;23.20;44.60;;;;;;6160565;28;83062;-66
2022/04/22 04:46:46;;;;;;;19.17;10.38;;;23.10;44.60;;;;;;6160605;28;82663;-67
2022/04/22 04:49:46;;;;;;;20.27;11.75;;;23.20;44.50;;;;;;6144534;28;84956;-65
2022/04/22 04:52:47;;;;;;;19.65;10.93;;;23.20;44.60;;;;;;6136080;28;82985;-68
2022/04/22 04:55:47;;;;;;;21.50;10.75;;;23.30;44.70;;;;;;6155506;28;83266;-66
2022/04/22 04:58:48;;;;;;;15.48;9.43;;;23.20;44.80;;;;;;6172040;28;82966;-64
2022/04/22 05:01:48;;;;;;;14.20;8.70;;;23.30;44.50;;;;;;6162486;28;83262;-67
2022/04/22 05:04:49;;;;;;;18.35;9.30;;;23.30;44.50;;;;;;6160727;28;81271;-66
2022/04/22 05:07:49;;;;;;;18.08;10.02;;;23.30;44.40;;;;;;6162464;28;80805;-66
2022/04/22 05:10:50;;;;;;;22.52;10.13;;;23.30;44.60;;;;;;6150506;28;83856;-68
2022/04/22 05:13:51;;;;;;;15.93;9.02;;;23.30;44.30;;;;;;6139845;28;84999;-68
2022/04/22 05:16:54;;;;;;;16.30;8.82;;;23.30;44.80;;;;;;6147381;28;83022;-69
2022/04/22 05:19:54;;;;;;;16.65;9.02;;;23.30;44.20;;;;;;6158738;28;80842;-69
2022/04/22 05:22:55;;;;;;;15.00;8.73;;;23.40;44.20;;;;;;6163009;28;81557;-69
2022/04/22 05:25:55;;;;;;;14.73;8.93;;;23.40;44.10;;;;;;6144498;28;80701;-69
2022/04/22 05:28:56;;;;;;;16.08;9.05;;;23.40;44.30;;;;;;6151248;28;80647;-70
2022/04/22 05:35:16;;;;;;;16.73;9.48;;;23.40;44.00;;;;;;6157437;28;80758;-69
2022/04/22 05:38:17;;;;;;;18.85;8.95;;;23.40;44.20;;;;;;6152674;28;80450;-68
2022/04/22 05:41:18;;;;;;;18.15;9.70;;;23.40;44.00;;;;;;6160358;28;80528;-68
2022/04/22 05:44:18;;;;;;;15.63;8.88;;;23.40;43.90;;;;;;6164062;28;80420;-67
2022/04/22 05:47:19;;;;;;;23.00;8.93;;;23.40;44.10;;;;;;6154121;28;81625;-70
2022/04/22 05:50:19;;;;;;;15.05;8.43;;;23.30;43.80;;;;;;6138377;28;80576;-67
2022/04/22 05:53:20;;;;;;;13.55;8.95;;;23.40;44.00;;;;;;6138165;28;80105;-66
2022/04/22 05:56:20;;;;;;;16.25;7.95;;;23.40;44.20;;;;;;6138372;28;80323;-64
2022/04/22 05:59:21;;;;;;;19.35;8.20;;;23.40;44.10;;;;;;6150397;28;81453;-67
2022/04/22 06:02:21;;;;;;;16.38;8.90;;;23.40;44.20;;;;;;6137751;28;80879;-67
2022/04/22 06:05:22;;;;;;;14.07;8.43;;;23.40;44.20;;;;;;6145239;28;80417;-66
2022/04/22 06:11:42;;;;;;;17.77;8.15;;;23.40;44.30;;;;;;6157999;28;80340;-66
2022/04/22 06:14:44;;;;;;;13.70;8.50;;;23.40;44.30;;;;;;6160521;28;80855;-67
2022/04/22 06:17:46;;;;;;;15.20;8.15;;;23.50;44.30;;;;;;6137710;28;79979;-68
2022/04/22 06:20:48;;;;;;;13.07;8.00;;;23.40;44.10;;;;;;6146223;28;81229;-68
2022/04/22 06:23:48;;;;;;;16.70;8.30;;;23.40;44.30;;;;;;6137883;28;80630;-72
2022/04/22 06:26:50;;;;;;;27.35;8.38;;;23.40;44.10;;;;;;6148332;28;80351;-70
2022/04/22 06:29:50;;;;;;;14.60;8.70;;;23.50;44.30;;;;;;6138239;28;80367;-71
2022/04/22 06:32:51;;;;;;;10.52;7.22;;;23.50;44.30;;;;;;6138016;28;80806;-71
2022/04/22 06:35:51;;;;;;;13.38;8.20;;;23.50;44.20;;;;;;6136758;28;81409;-69
2022/04/22 06:38:57;;;;;;;11.40;7.95;;;23.50;44.20;;;;;;6136573;28;79989;-72
2022/04/22 06:48:36;;;;;;;11.68;8.27;;;23.50;45.00;;;;;;6137642;28;81434;-69
2022/04/22 06:51:38;;;;;;;14.98;8.35;;;23.50;44.30;;;;;;6148271;28;81238;-67
2022/04/22 06:54:38;;;;;;;12.35;8.00;;;23.60;44.50;;;;;;6161936;28;80365;-69
2022/04/22 06:57:39;;;;;;;11.93;7.72;;;23.60;44.40;;;;;;6160792;28;81577;-69
2022/04/22 07:00:39;;;;;;;14.68;8.32;;;23.60;44.30;;;;;;6149613;28;81441;-68
2022/04/22 07:03:40;;;;;;;11.68;7.20;;;23.60;44.50;;;;;;6136120;28;80604;-68
2022/04/22 07:06:42;;;;;;;14.05;8.45;;;23.60;44.50;;;;;;6146273;28;80776;-69
2022/04/22 07:09:43;;;;;;;20.35;8.02;;;23.50;44.40;;;;;;6161229;28;80628;-68
2022/04/22 07:12:43;;;;;;;13.18;8.57;;;23.60;44.40;;;;;;6161173;28;81584;-69
2022/04/22 07:15:44;;;;;;;13.85;8.38;;;23.60;44.60;;;;;;6161435;28;80512;-71
2022/04/22 07:18:44;;;;;;;12.98;8.27;;;23.60;44.40;;;;;;6161433;28;80647;-71
2022/04/22 07:21:45;;;;;;;13.40;8.65;;;23.60;44.50;;;;;;6157772;28;80485;-68
2022/04/22 07:24:45;;;;;;;12.70;7.93;;;23.50;44.40;;;;;;6160939;28;80334;-68
2022/04/22 07:27:47;;;;;;;14.32;8.25;;;23.60;44.50;;;;;;6145316;28;80332;-68
2022/04/22 07:30:50;;;;;;;17.75;8.65;;;23.60;44.60;;;;;;6136492;28;81513;-70
2022/04/22 07:33:51;;;;;;;14.85;8.93;;;23.60;44.50;;;;;;6137532;28;81321;-69
2022/04/22 07:36:52;;;;;;;14.15;8.50;;;23.60;44.50;;;;;;6135990;28;80704;-71
2022/04/22 07:39:52;;;;;;;24.55;9.52;;;23.60;44.50;;;;;;6136927;28;81059;-72
2022/04/22 07:49:32;;;;;;;11.57;8.00;;;23.60;44.60;;;;;;6135540;28;84786;-72
2022/04/22 07:52:33;;;;;;;19.20;9.32;;;23.60;44.60;;;;;;6157649;28;81051;-70
2022/04/22 07:55:33;;;;;;;12.93;8.77;;;23.60;44.80;;;;;;6160338;28;80420;-68
2022/04/22 07:58:34;;;;;;;13.35;9.38;;;23.60;44.80;;;;;;6159604;28;80037;-68
2022/04/22 08:01:34;;;;;;;15.20;8.52;;;23.60;44.70;;;;;;6158966;28;80581;-73
2022/04/22 08:04:35;;;;;;;14.55;8.70;;;23.60;44.80;;;;;;6152101;28;81838;-71
2022/04/22 08:07:35;;;;;;;16.98;8.35;;;23.60;44.70;;;;;;6144946;28;80143;-72
2022/04/22 08:10:36;;;;;;;14.00;8.32;;;23.60;44.60;;;;;;6132921;28;80915;-68
2022/04/22 08:13:37;;;;;;;12.10;8.23;;;23.60;44.80;;;;;;6142192;28;80804;-67
2022/04/22 08:16:37;;;;;;;20.88;11.38;;;23.60;44.60;;;;;;6135659;28;80486;-66
2022/04/22 08:19:38;;;;;;;125.85;57.42;;;23.60;44.50;;;;;;6132572;28;82976;-68
2022/04/22 08:22:38;;;;;;;114.53;53.22;;;23.60;44.40;;;;;;6134498;28;83082;-72
2022/04/22 08:25:41;;;;;;;164.65;75.93;;;23.60;44.30;;;;;;6156785;28;83227;-70
2022/04/22 08:28:41;;;;;;;150.50;71.10;;;23.60;44.40;;;;;;6149349;28;83012;-69
2022/04/22 08:31:42;;;;;;;134.40;62.83;;;23.60;44.30;;;;;;6155763;28;83271;-70
2022/04/22 08:34:44;;;;;;;186.38;88.38;;;23.60;44.50;;;;;;6156157;28;83230;-68
2022/04/22 08:37:45;;;;;;;229.82;108.97;;;23.60;44.70;;;;;;6155928;28;84294;-69
2022/04/22 08:40:45;;;;;;;327.77;158.82;;;23.60;44.80;;;;;;6135643;28;85292;-69
2022/04/22 08:43:46;;;;;;;291.65;141.95;;;23.60;44.80;;;;;;6142466;28;86080;-68
2022/04/22 08:50:19;;;;;;;241.35;119.85;;;23.70;44.50;;;;;;6152591;28;86281;-70
2022/04/22 08:53:21;;;;;;;246.40;113.45;;;23.70;44.30;;;;;;6151212;28;85427;-70
2022/04/22 08:56:21;;;;;;;225.25;108.55;;;23.70;44.30;;;;;;6139027;28;88006;-72
2022/04/22 08:59:26;;;;;;;197.07;97.88;;;23.70;44.40;;;;;;6130784;28;86160;-70
2022/04/22 09:02:26;;;;;;;195.57;90.45;;;23.70;44.40;;;;;;6131384;28;85596;-70
2022/04/22 09:05:27;;;;;;;182.63;89.50;;;23.70;44.50;;;;;;6151187;28;83629;-70
2022/04/22 09:08:30;;;;;;;177.93;83.30;;;23.70;44.50;;;;;;6155258;28;83384;-68
2022/04/22 09:11:31;;;;;;;157.55;77.70;;;23.70;44.80;;;;;;6133178;28;83106;-68
2022/04/22 09:14:31;;;;;;;148.10;74.15;;;23.70;44.80;;;;;;6131066;28;83127;-69
2022/04/22 09:17:36;;;;;;;149.13;71.25;;;23.70;44.80;;;;;;6131114;28;83669;-70
2022/04/22 09:20:36;;;;;;;136.68;66.32;;;23.80;44.80;;;;;;6131126;28;84257;-69
2022/04/22 09:23:37;;;;;;;130.88;61.92;;;23.70;44.60;;;;;;6149045;28;83160;-69
2022/04/22 09:26:38;;;;;;;127.57;63.50;;;23.80;44.70;;;;;;6157151;28;84313;-69
2022/04/22 09:29:38;;;;;;;126.25;59.42;;;23.80;44.60;;;;;;6141277;28;83020;-69
2022/04/22 09:32:39;;;;;;;116.10;56.33;;;23.80;44.60;;;;;;6141116;28;83223;-68
2022/04/22 09:45:41;;;;;;;98.78;48.38;;;23.70;44.60;;;;;;6148446;28;83513;-65
2022/04/22 09:48:42;;;;;;;104.18;46.95;;;23.70;44.50;;;;;;6134554;28;82840;-67
2022/04/22 09:51:43;;;;;;;92.43;43.38;;;23.70;44.30;;;;;;6134772;28;82908;-71
2022/04/22 09:54:45;;;;;;;85.93;42.22;;;23.70;44.50;;;;;;6135079;28;83187;-70
2022/04/22 09:57:45;;;;;;;88.95;40.95;;;23.70;44.50;;;;;;6136781;28;83102;-70
2022/04/22 10:00:47;;;;;;;85.25;39.95;;;23.70;44.70;;;;;;6157509;28;83268;-69
2022/04/22 10:03:48;;;;;;;91.65;40.05;;;23.70;44.50;;;;;;6158315;28;82974;-69
2022/04/22 10:06:49;;;;;;;80.00;37.22;;;23.70;44.60;;;;;;6148922;28;84643;-69
2022/04/22 10:09:49;;;;;;;73.35;35.60;;;23.70;44.50;;;;;;6158367;28;83230;-69
2022/04/22 10:12:50;;;;;;;66.18;33.33;;;23.70;44.40;;;;;;6158337;28;83295;-69
2022/04/22 10:15:50;;;;;;;70.95;33.05;;;23.70;44.30;;;;;;6144591;28;83130;-69
2022/04/22 10:18:51;;;;;;;71.20;34.20;;;23.70;44.20;;;;;;6134331;28;83016;-69
2022/04/22 10:21:51;;;;;;;64.68;31.02;;;23.70;44.20;;;;;;6133858;28;83621;-69
2022/04/22 10:24:52;;;;;;;66.35;31.05;;;23.70;44.10;;;;;;6133877;28;83118;-70
2022/04/22 10:27:53;;;;;;;68.38;30.58;;;23.70;44.00;;;;;;6134166;28;83452;-69
2022/04/22 10:30:54;;;;;;;58.17;28.15;;;23.70;43.90;;;;;;6144190;28;82949;-69
2022/04/22 10:33:54;;;;;;;54.65;27.27;;;23.70;43.80;;;;;;6153885;28;83171;-69
2022/04/22 10:36:56;;;;;;;56.17;27.27;;;23.70;43.80;;;;;;6133461;28;82940;-69
2022/04/22 10:39:59;;;;;;;45.30;24.63;;;23.70;43.70;;;;;;6143036;28;83948;-68
2022/04/22 10:43:01;;;;;;;46.97;24.60;;;23.60;43.60;;;;;;6157987;28;82951;-69
2022/04/22 10:49:21;;;;;;;48.90;24.42;;;23.70;43.60;;;;;;6158092;28;83390;-69
2022/04/22 10:52:22;;;;;;;47.72;23.58;;;23.70;43.60;;;;;;6138508;28;83070;-69
2022/04/22 10:55:22;;;;;;;53.08;22.98;;;23.60;43.40;;;;;;6145455;28;83804;-69
2022/04/22 10:58:26;;;;;;;44.30;21.52;;;23.70;44.20;;;;;;6157014;28;89093;-68
2022/04/22 11:01:28;;;;;;;46.17;22.40;;;23.60;43.30;;;;;;6157334;28;83117;-69
2022/04/22 11:04:31;;;;;;;41.63;22.15;;;23.70;43.40;;;;;;6157971;28;83455;-69
2022/04/22 11:07:31;;;;;;;38.90;20.38;;;23.70;43.40;;;;;;6139529;28;83023;-68
2022/04/22 11:10:32;;;;;;;44.55;19.75;;;23.70;43.20;;;;;;6133199;28;83186;-68
2022/04/22 11:13:36;;;;;;;36.05;18.63;;;23.70;43.10;;;;;;6133236;28;84618;-69
2022/04/22 11:16:36;;;;;;;37.90;18.52;;;23.70;43.10;;;;;;6141576;28;83745;-71
2022/04/22 11:19:37;;;;;;;38.45;18.55;;;23.70;43.10;;;;;;6156008;28;83357;-69
2022/04/22 11:22:37;;;;;;;32.78;18.13;;;23.70;43.00;;;;;;6156625;28;83788;-69
2022/04/22 11:25:38;;;;;;;34.78;18.50;;;23.70;42.90;;;;;;6158034;28;83141;-69
2022/04/22 11:28:38;;;;;;;35.58;18.77;;;23.70;42.90;;;;;;6133800;28;83131;-68
2022/04/22 11:31:39;;;;;;;31.67;17.85;;;23.70;42.90;;;;;;6124618;28;83950;-69
2022/04/22 11:34:39;;;;;;;32.10;17.55;;;23.70;42.90;;;;;;6133014;28;83120;-70
2022/04/22 11:37:40;;;;;;;28.02;15.60;;;23.70;42.90;;;;;;6153036;28;83870;-68
2022/04/22 11:40:40;;;;;;;29.13;15.40;;;23.70;42.80;;;;;;6150731;28;82814;-68
2022/04/22 11:43:41;;;;;;;31.02;16.27;;;23.70;43.20;;;;;;6152938;28;83076;-68
2022/04/22 11:46:43;;;;;;;25.08;13.93;;;23.70;43.30;;;;;;6145335;28;83335;-71
2022/04/22 11:49:44;;;;;;;27.45;13.88;;;23.70;43.40;;;;;;6136220;28;83090;-70
2022/04/22 11:52:45;;;;;;;21.50;13.52;;;23.70;43.40;;;;;;6144572;28;83077;-71
2022/04/22 11:55:47;;;;;;;25.67;13.20;;;23.70;43.70;;;;;;6132458;28;82714;-71
2022/04/22 11:58:47;;;;;;;25.83;13.13;;;23.70;44.20;;;;;;6138885;28;83255;-75
2022/04/22 12:08:27;;;;;;;18.20;10.80;;;23.80;44.50;;;;;;6142017;28;83820;-68
2022/04/22 12:11:27;;;;;;;18.40;11.80;;;23.90;44.40;;;;;;6152729;28;88895;-68
2022/04/22 12:14:29;;;;;;;35.05;11.23;;;23.80;44.60;;;;;;6139152;28;83977;-70
2022/04/22 12:17:30;;;;;;;24.00;11.95;;;23.90;44.90;;;;;;6139939;28;83209;-70
2022/04/22 12:20:30;;;;;;;19.80;11.30;;;23.90;45.60;;;;;;6146156;28;82859;-69
2022/04/22 12:23:31;;;;;;;23.70;10.48;;;23.90;45.30;;;;;;6157622;28;83458;-72
2022/04/22 12:26:32;;;;;;;25.33;12.07;;;23.90;45.60;;;;;;6157302;28;83061;-70
2022/04/22 12:29:33;;;;;;;22.88;12.00;;;23.90;46.30;;;;;;6137172;28;83275;-71
2022/04/22 12:32:33;;;;;;;25.13;11.65;;;23.90;47.40;;;;;;6145874;28;83119;-71
2022/04/22 12:35:34;;;;;;;24.33;11.80;;;23.90;47.60;;;;;;6155175;28;84304;-72
2022/04/22 12:38:34;;;;;;;23.90;10.98;;;24.00;47.50;;;;;;6144589;28;84034;-73
2022/04/22 12:41:35;;;;;;;22.83;10.82;;;24.00;47.50;;;;;;6154059;28;84050;-74
2022/04/22 12:44:36;;;;;;;23.17;10.15;;;24.00;47.70;;;;;;6153099;28;83102;-72
2022/04/22 12:54:16;;;;;;;24.05;11.00;;;24.00;47.40;;;;;;6154830;28;83431;-71
2022/04/22 12:57:18;;;;;;;21.58;10.70;;;24.00;47.30;;;;;;6157506;28;83412;-70
2022/04/22 13:00:19;;;;;;;22.85;10.27;;;24.00;47.40;;;;;;6157877;28;83060;-72
2022/04/22 13:03:21;;;;;;;21.30;10.23;;;24.00;47.40;;;;;;6158021;28;84138;-71
2022/04/22 13:06:22;;;;;;;19.23;9.88;;;24.00;47.20;;;;;;6156451;28;83336;-72
2022/04/22 13:09:23;;;;;;;18.88;9.70;;;24.00;47.10;;;;;;6162061;28;83315;-72
2022/04/22 13:12:24;;;;;;;20.05;9.95;;;24.00;47.10;;;;;;6163067;28;80496;-69
2022/04/22 13:15:24;;;;;;;17.30;9.52;;;24.00;47.10;;;;;;6148212;28;83451;-73
2022/04/22 13:18:25;;;;;;;16.77;9.48;;;24.00;47.10;;;;;;6141816;28;81494;-70
2022/04/22 13:21:25;;;;;;;16.77;9.60;;;24.00;47.30;;;;;;6162072;28;80332;-72
2022/04/22 13:24:26;;;;;;;16.92;8.68;;;24.00;47.10;;;;;;6158726;28;80318;-69
2022/04/22 13:27:26;;;;;;;19.00;9.60;;;24.00;47.10;;;;;;6161996;28;80569;-72
2022/04/22 13:30:27;;;;;;;19.77;9.35;;;24.00;47.30;;;;;;6143862;28;80864;-71
2022/04/22 13:33:31;;;;;;;21.20;9.43;;;24.00;47.20;;;;;;6138722;28;80422;-71
2022/04/22 13:36:32;;;;;;;19.92;9.10;;;23.90;47.00;;;;;;6149549;28;80483;-73
2022/04/22 13:39:32;;;;;;;16.52;9.40;;;24.00;47.00;;;;;;6153652;28;81526;-71
2022/04/22 13:42:33;;;;;;;13.20;8.52;;;24.00;46.90;;;;;;6139128;28;80440;-71
2022/04/22 13:52:22;;;;;;;15.10;8.35;;;24.00;47.00;;;;;;6161911;28;80706;-71
2022/04/22 13:55:22;;;;;;;14.65;8.93;;;24.00;46.70;;;;;;6161612;28;80464;-70
2022/04/22 13:58:23;;;;;;;18.90;8.82;;;24.00;46.80;;;;;;6161483;28;84783;-69
2022/04/22 14:01:23;;;;;;;14.63;8.82;;;24.00;46.60;;;;;;6145123;28;81574;-71
2022/04/22 14:04:24;;;;;;;12.45;8.75;;;24.00;46.80;;;;;;6137953;28;80259;-73
2022/04/22 14:07:24;;;;;;;10.95;7.05;;;23.90;46.90;;;;;;6137692;28;80910;-71
2022/04/22 14:10:25;;;;;;;13.07;7.63;;;23.90;46.70;;;;;;6138062;28;81626;-72
2022/04/22 14:13:27;;;;;;;12.88;7.85;;;23.90;46.80;;;;;;6137827;28;80529;-71
2022/04/22 14:16:28;;;;;;;84.80;40.47;;;23.90;46.90;;;;;;6156209;28;81728;-71
2022/04/22 14:19:29;;;;;;;188.13;88.40;;;23.90;46.70;;;;;;6156468;28;83074;-71
2022/04/22 14:22:30;;;;;;;255.77;111.32;;;23.90;46.60;;;;;;6134716;28;83204;-72
2022/04/22 14:25:31;;;;;;;289.38;135.90;;;23.90;46.50;;;;;;6143184;28;86040;-73
2022/04/22 14:28:31;;;;;;;425.50;201.80;;;23.90;46.90;;;;;;6143676;28;85763;-72
2022/04/22 14:31:32;;;;;;;305.55;140.30;;;23.90;46.80;;;;;;6152257;28;87749;-70
2022/04/22 14:34:32;;;;;;;249.93;117.15;;;23.90;46.70;;;;;;6147890;28;85885;-70
2022/04/22 14:37:33;;;;;;;236.35;109.22;;;23.90;46.60;;;;;;6150493;28;86705;-71
2022/04/22 14:40:34;;;;;;;212.05;102.15;;;23.90;46.50;;;;;;6149288;28;87521;-72
2022/04/22 14:43:34;;;;;;;204.63;95.90;;;23.90;46.50;;;;;;6153039;28;85720;-73
2022/04/22 14:46:37;;;;;;;169.10;81.75;;;23.90;46.60;;;;;;6157585;28;85818;-72
2022/04/22 14:49:38;;;;;;;166.88;78.30;;;23.90;46.60;;;;;;6158778;28;83350;-75
2022/04/22 14:52:40;;;;;;;154.95;71.20;;;23.90;46.90;;;;;;6155130;28;84029;-70
2022/04/22 14:55:41;;;;;;;158.20;73.03;;;23.90;46.80;;;;;;6132479;28;86028;-70
2022/04/22 14:58:41;;;;;;;146.07;68.53;;;23.90;46.60;;;;;;6143514;28;83225;-70
2022/04/22 15:01:42;;;;;;;128.02;65.10;;;23.90;46.30;;;;;;6143924;28;84330;-71
2022/04/22 15:04:42;;;;;;;130.05;59.15;;;23.90;46.40;;;;;;6134495;28;83318;-68
2022/04/22 15:07:45;;;;;;;131.77;60.45;;;23.90;46.50;;;;;;6154838;28;83141;-70
2022/04/22 15:10:45;;;;;;;114.30;54.10;;;23.80;46.90;;;;;;6148136;28;83040;-70
2022/04/22 15:13:46;;;;;;;111.53;50.15;;;23.80;47.50;;;;;;6157576;28;83013;-70
2022/04/22 15:16:46;;;;;;;98.28;49.15;;;23.90;47.80;;;;;;6147286;28;83998;-70
2022/04/22 15:26:25;;;;;;;83.55;40.33;;;23.80;48.00;;;;;;6145530;28;83072;-73
2022/04/22 15:29:29;;;;;;;80.55;38.47;;;23.90;47.80;;;;;;6157796;28;83116;-75
2022/04/22 15:32:30;;;;;;;79.60;38.83;;;23.90;47.90;;;;;;6141594;28;83969;-72
2022/04/22 15:35:30;;;;;;;75.75;33.80;;;23.90;47.90;;;;;;6143257;28;83128;-79
2022/04/22 15:38:31;;;;;;;68.47;33.83;;;23.90;47.70;;;;;;6152455;28;83257;-72
2022/04/22 15:41:32;;;;;;;71.07;33.35;;;23.90;47.50;;;;;;6155383;28;83301;-74
2022/04/22 15:44:32;;;;;;;66.65;31.45;;;23.90;47.60;;;;;;6142046;28;83827;-74
2022/04/22 15:47:33;;;;;;;62.63;30.27;;;23.80;47.40;;;;;;6132951;28;83498;-75
2022/04/22 15:50:33;;;;;;;53.53;27.40;;;23.90;48.10;;;;;;6131890;28;82811;-80
2022/04/22 15:53:34;;;;;;;56.35;27.52;;;23.90;47.20;;;;;;6142713;28;83474;-73
2022/04/22 15:56:36;;;;;;;54.80;26.35;;;23.90;47.20;;;;;;6132242;28;84164;-73
2022/04/22 15:59:37;;;;;;;54.10;25.63;;;23.80;47.20;;;;;;6152488;28;82903;-74
2022/04/22 16:02:37;;;;;;;51.40;24.17;;;23.90;47.30;;;;;;6136218;28;83839;-73
2022/04/22 16:05:38;;;;;;;46.83;21.98;;;23.90;47.00;;;;;;6133052;28;83436;-75
2022/04/22 16:08:38;;;;;;;44.38;21.52;;;23.90;46.80;;;;;;6134362;28;83563;-81
2022/04/22 16:15:17;;;;;;;36.28;17.65;;;23.90;47.10;;;;;;6132940;28;84501;-73
2022/04/22 16:18:19;;;;;;;39.22;16.10;;;23.90;47.00;;;;;;6145580;28;83202;-75
2022/04/22 16:21:20;;;;;;;36.33;16.30;;;23.90;46.60;;;;;;6140289;28;82874;-76
2022/04/22 16:24:20;;;;;;;27.67;14.48;;;23.80;46.60;;;;;;6143392;28;83686;-75
2022/04/22 16:27:22;;;;;;;24.83;12.73;;;23.80;46.50;;;;;;6138028;28;83183;-76
2022/04/22 16:30:22;;;;;;;23.77;11.55;;;23.80;46.40;;;;;;6147222;28;82949;-76
2022/04/22 16:33:23;;;;;;;22.80;11.45;;;23.80;46.90;;;;;;6142076;28;83209;-74
2022/04/22 16:36:23;;;;;;;26.50;11.60;;;23.80;46.20;;;;;;6153532;28;83503;-78
2022/04/22 16:39:25;;;;;;;22.00;10.45;;;23.80;46.00;;;;;;6153410;28;83927;-72
2022/04/22 16:42:27;;;;;;;23.15;10.85;;;23.80;46.00;;;;;;6160722;28;84056;-73
2022/04/22 16:45:27;;;;;;;21.23;10.35;;;23.80;46.00;;;;;;6161087;28;83112;-77
2022/04/22 16:48:28;;;;;;;17.73;9.88;;;23.80;45.80;;;;;;6160387;28;83602;-71
2022/04/22 16:51:28;;;;;;;21.27;9.25;;;23.80;46.50;;;;;;6159987;28;83392;-72
2022/04/22 16:54:29;;;;;;;17.42;9.38;;;23.80;46.20;;;;;;6147586;28;80452;-68
2022/04/22 16:57:29;;;;;;;15.27;7.35;;;23.80;45.90;;;;;;6139116;28;81058;-69